Bridgeport, Washington
Current Conditions -  °F | °C
As of 6:04 AM on Thursday 29 Jan 2015 (Local Time) from KOMK Reporting Station
Overcast Overcast  
Wind Chill: 27°   Ceiling: 1000
Heat Index: 32°   Visibility: 10mi
Dew Point: 29°   Wind: 5mph
Humidity: 88%   Direction: 320°NW
Pressure: 30.49"   Gusts: NA
Location:  48.01°N, 119.67°W
Report Text: KOMK 291404Z AUTO 32004KT 10SM OVC010 00/M02 A3049 RMK AO2 CIG 007V013 T00001017
Loading
Personal Weather Stations






























Interactive Weather Map New forecast layout! Learn more

10-Day Weather Forecast

Advertisements
Track Severe Weather on mobile